sensor_id;sensor_type;location;lat;lon;timestamp;P1;durP1;ratioP1;P2;durP2;ratioP2
32705;SDS011;19094;50.972;3.538;2023-08-21T00:00:44;7.88;;;2.38;;
32705;SDS011;19094;50.972;3.538;2023-08-21T00:03:10;15.25;;;3.17;;
32705;SDS011;19094;50.972;3.538;2023-08-21T00:05:35;7.40;;;3.10;;
32705;SDS011;19094;50.972;3.538;2023-08-21T00:08:01;10.23;;;3.15;;
32705;SDS011;19094;50.972;3.538;2023-08-21T00:10:26;7.57;;;3.15;;
32705;SDS011;19094;50.972;3.538;2023-08-21T00:12:52;9.20;;;3.38;;
32705;SDS011;19094;50.972;3.538;2023-08-21T00:15:18;11.13;;;3.15;;
32705;SDS011;19094;50.972;3.538;2023-08-21T00:17:44;16.23;;;3.70;;
32705;SDS011;19094;50.972;3.538;2023-08-21T00:20:09;12.70;;;3.67;;
32705;SDS011;19094;50.972;3.538;2023-08-21T00:22:36;12.65;;;3.45;;
32705;SDS011;19094;50.972;3.538;2023-08-21T00:25:02;10.95;;;3.25;;
32705;SDS011;19094;50.972;3.538;2023-08-21T00:27:28;9.73;;;3.60;;
32705;SDS011;19094;50.972;3.538;2023-08-21T00:29:53;11.07;;;3.80;;
32705;SDS011;19094;50.972;3.538;2023-08-21T00:32:19;11.32;;;3.65;;
32705;SDS011;19094;50.972;3.538;2023-08-21T00:34:44;10.75;;;3.58;;
32705;SDS011;19094;50.972;3.538;2023-08-21T00:37:10;16.88;;;4.15;;
32705;SDS011;19094;50.972;3.538;2023-08-21T00:39:36;9.43;;;3.55;;
32705;SDS011;19094;50.972;3.538;2023-08-21T00:42:01;8.63;;;3.53;;
32705;SDS011;19094;50.972;3.538;2023-08-21T00:44:27;14.27;;;3.60;;
32705;SDS011;19094;50.972;3.538;2023-08-21T00:46:53;10.00;;;3.15;;
32705;SDS011;19094;50.972;3.538;2023-08-21T00:49:19;6.18;;;3.45;;
32705;SDS011;19094;50.972;3.538;2023-08-21T00:51:45;10.00;;;3.80;;
32705;SDS011;19094;50.972;3.538;2023-08-21T00:54:12;9.13;;;3.20;;
32705;SDS011;19094;50.972;3.538;2023-08-21T00:56:38;10.93;;;3.88;;
32705;SDS011;19094;50.972;3.538;2023-08-21T00:59:04;9.48;;;3.55;;
32705;SDS011;19094;50.972;3.538;2023-08-21T01:01:30;11.65;;;3.83;;
32705;SDS011;19094;50.972;3.538;2023-08-21T01:03:56;18.23;;;4.05;;
32705;SDS011;19094;50.972;3.538;2023-08-21T01:06:22;9.93;;;3.78;;
32705;SDS011;19094;50.972;3.538;2023-08-21T01:11:25;14.52;;;4.38;;
32705;SDS011;19094;50.972;3.538;2023-08-21T01:14:16;8.63;;;4.20;;
32705;SDS011;19094;50.972;3.538;2023-08-21T01:16:52;17.23;;;4.32;;
32705;SDS011;19094;50.972;3.538;2023-08-21T01:19:31;8.88;;;3.15;;
32705;SDS011;19094;50.972;3.538;2023-08-21T01:22:07;13.38;;;4.53;;
32705;SDS011;19094;50.972;3.538;2023-08-21T01:24:33;11.82;;;3.35;;
32705;SDS011;19094;50.972;3.538;2023-08-21T01:26:59;10.23;;;3.10;;
32705;SDS011;19094;50.972;3.538;2023-08-21T01:29:25;10.80;;;3.38;;
32705;SDS011;19094;50.972;3.538;2023-08-21T01:34:37;5.20;;;2.83;;
32705;SDS011;19094;50.972;3.538;2023-08-21T01:37:04;12.73;;;2.65;;
32705;SDS011;19094;50.972;3.538;2023-08-21T01:39:31;12.50;;;4.63;;
32705;SDS011;19094;50.972;3.538;2023-08-21T01:41:57;10.18;;;3.60;;
32705;SDS011;19094;50.972;3.538;2023-08-21T01:44:23;8.20;;;3.45;;
32705;SDS011;19094;50.972;3.538;2023-08-21T01:46:49;9.45;;;3.90;;
32705;SDS011;19094;50.972;3.538;2023-08-21T01:49:15;10.80;;;3.50;;
32705;SDS011;19094;50.972;3.538;2023-08-21T01:51:40;9.20;;;3.72;;
32705;SDS011;19094;50.972;3.538;2023-08-21T01:54:06;7.07;;;3.55;;
32705;SDS011;19094;50.972;3.538;2023-08-21T01:56:32;10.45;;;4.07;;
32705;SDS011;19094;50.972;3.538;2023-08-21T01:58:57;10.20;;;4.53;;
32705;SDS011;19094;50.972;3.538;2023-08-21T02:01:23;15.60;;;4.25;;
32705;SDS011;19094;50.972;3.538;2023-08-21T02:03:49;12.15;;;4.30;;
32705;SDS011;19094;50.972;3.538;2023-08-21T02:06:14;11.32;;;3.85;;
32705;SDS011;19094;50.972;3.538;2023-08-21T02:08:40;11.90;;;4.72;;
32705;SDS011;19094;50.972;3.538;2023-08-21T02:11:06;12.65;;;4.85;;
32705;SDS011;19094;50.972;3.538;2023-08-21T02:13:31;10.07;;;4.47;;
32705;SDS011;19094;50.972;3.538;2023-08-21T02:15:58;11.23;;;4.10;;
32705;SDS011;19094;50.972;3.538;2023-08-21T02:18:23;11.18;;;4.50;;
32705;SDS011;19094;50.972;3.538;2023-08-21T02:20:49;13.65;;;5.00;;
32705;SDS011;19094;50.972;3.538;2023-08-21T02:23:15;15.77;;;4.68;;
32705;SDS011;19094;50.972;3.538;2023-08-21T02:25:41;14.15;;;4.57;;
32705;SDS011;19094;50.972;3.538;2023-08-21T02:28:07;10.57;;;4.63;;
32705;SDS011;19094;50.972;3.538;2023-08-21T02:30:33;8.93;;;4.50;;
32705;SDS011;19094;50.972;3.538;2023-08-21T02:32:58;10.43;;;4.00;;
32705;SDS011;19094;50.972;3.538;2023-08-21T02:35:24;13.05;;;4.25;;
32705;SDS011;19094;50.972;3.538;2023-08-21T02:37:50;15.02;;;4.22;;
32705;SDS011;19094;50.972;3.538;2023-08-21T02:40:15;12.05;;;4.38;;
32705;SDS011;19094;50.972;3.538;2023-08-21T02:42:41;13.90;;;4.60;;
32705;SDS011;19094;50.972;3.538;2023-08-21T02:45:07;13.85;;;4.80;;
32705;SDS011;19094;50.972;3.538;2023-08-21T02:47:42;12.40;;;4.80;;
32705;SDS011;19094;50.972;3.538;2023-08-21T02:50:08;11.57;;;4.50;;
32705;SDS011;19094;50.972;3.538;2023-08-21T02:52:35;18.52;;;5.20;;
32705;SDS011;19094;50.972;3.538;2023-08-21T02:55:01;10.40;;;4.68;;
32705;SDS011;19094;50.972;3.538;2023-08-21T02:57:27;19.05;;;4.88;;
32705;SDS011;19094;50.972;3.538;2023-08-21T02:59:53;10.23;;;4.43;;
32705;SDS011;19094;50.972;3.538;2023-08-21T03:02:20;20.70;;;5.20;;
32705;SDS011;19094;50.972;3.538;2023-08-21T03:04:46;23.42;;;5.35;;
32705;SDS011;19094;50.972;3.538;2023-08-21T03:07:12;16.10;;;5.72;;
32705;SDS011;19094;50.972;3.538;2023-08-21T03:09:38;11.93;;;4.60;;
32705;SDS011;19094;50.972;3.538;2023-08-21T03:12:05;12.35;;;4.90;;
32705;SDS011;19094;50.972;3.538;2023-08-21T03:14:31;17.77;;;5.22;;
32705;SDS011;19094;50.972;3.538;2023-08-21T03:16:57;11.77;;;4.53;;
32705;SDS011;19094;50.972;3.538;2023-08-21T03:19:23;15.43;;;4.53;;
32705;SDS011;19094;50.972;3.538;2023-08-21T03:21:48;15.30;;;4.38;;
32705;SDS011;19094;50.972;3.538;2023-08-21T03:24:14;12.15;;;4.05;;
32705;SDS011;19094;50.972;3.538;2023-08-21T03:26:40;12.88;;;4.63;;
32705;SDS011;19094;50.972;3.538;2023-08-21T03:29:05;7.75;;;3.72;;
32705;SDS011;19094;50.972;3.538;2023-08-21T03:31:31;19.15;;;4.60;;
32705;SDS011;19094;50.972;3.538;2023-08-21T03:33:57;12.07;;;4.28;;
32705;SDS011;19094;50.972;3.538;2023-08-21T03:36:22;10.75;;;4.55;;
32705;SDS011;19094;50.972;3.538;2023-08-21T03:38:56;18.17;;;6.20;;
32705;SDS011;19094;50.972;3.538;2023-08-21T03:41:22;13.43;;;5.25;;
32705;SDS011;19094;50.972;3.538;2023-08-21T03:43:48;14.70;;;4.18;;
32705;SDS011;19094;50.972;3.538;2023-08-21T03:46:13;15.30;;;4.70;;
32705;SDS011;19094;50.972;3.538;2023-08-21T03:48:39;9.93;;;4.22;;
32705;SDS011;19094;50.972;3.538;2023-08-21T03:51:05;15.27;;;4.70;;
32705;SDS011;19094;50.972;3.538;2023-08-21T03:53:30;16.98;;;5.07;;
32705;SDS011;19094;50.972;3.538;2023-08-21T03:55:56;14.18;;;4.63;;
32705;SDS011;19094;50.972;3.538;2023-08-21T03:58:22;15.05;;;5.10;;
32705;SDS011;19094;50.972;3.538;2023-08-21T04:00:47;14.88;;;5.47;;
32705;SDS011;19094;50.972;3.538;2023-08-21T04:03:13;14.55;;;5.00;;
32705;SDS011;19094;50.972;3.538;2023-08-21T04:05:38;16.05;;;5.25;;
32705;SDS011;19094;50.972;3.538;2023-08-21T04:08:04;14.88;;;5.25;;
32705;SDS011;19094;50.972;3.538;2023-08-21T04:10:30;16.10;;;5.43;;
32705;SDS011;19094;50.972;3.538;2023-08-21T04:12:55;8.25;;;4.55;;
32705;SDS011;19094;50.972;3.538;2023-08-21T04:15:21;18.13;;;5.97;;
32705;SDS011;19094;50.972;3.538;2023-08-21T04:17:47;14.40;;;4.88;;
32705;SDS011;19094;50.972;3.538;2023-08-21T04:20:12;11.68;;;4.90;;
32705;SDS011;19094;50.972;3.538;2023-08-21T04:22:38;15.20;;;4.78;;
32705;SDS011;19094;50.972;3.538;2023-08-21T04:25:04;13.07;;;4.80;;
32705;SDS011;19094;50.972;3.538;2023-08-21T04:27:31;11.18;;;4.88;;
32705;SDS011;19094;50.972;3.538;2023-08-21T04:29:58;14.48;;;5.30;;
32705;SDS011;19094;50.972;3.538;2023-08-21T04:32:24;15.80;;;5.07;;
32705;SDS011;19094;50.972;3.538;2023-08-21T04:34:50;20.38;;;5.95;;
32705;SDS011;19094;50.972;3.538;2023-08-21T04:37:15;15.32;;;5.05;;
32705;SDS011;19094;50.972;3.538;2023-08-21T04:39:41;15.15;;;4.53;;
32705;SDS011;19094;50.972;3.538;2023-08-21T04:42:06;20.25;;;5.70;;
32705;SDS011;19094;50.972;3.538;2023-08-21T04:44:32;15.00;;;5.95;;
32705;SDS011;19094;50.972;3.538;2023-08-21T04:47:18;19.67;;;6.18;;
32705;SDS011;19094;50.972;3.538;2023-08-21T04:49:51;15.18;;;5.28;;
32705;SDS011;19094;50.972;3.538;2023-08-21T04:52:18;15.00;;;5.85;;
32705;SDS011;19094;50.972;3.538;2023-08-21T04:54:47;16.35;;;5.72;;
32705;SDS011;19094;50.972;3.538;2023-08-21T04:57:13;16.00;;;6.18;;
32705;SDS011;19094;50.972;3.538;2023-08-21T04:59:39;16.85;;;6.18;;
32705;SDS011;19094;50.972;3.538;2023-08-21T05:02:05;19.02;;;5.80;;
32705;SDS011;19094;50.972;3.538;2023-08-21T05:04:30;18.00;;;6.30;;
32705;SDS011;19094;50.972;3.538;2023-08-21T05:06:56;20.60;;;6.50;;
32705;SDS011;19094;50.972;3.538;2023-08-21T05:09:22;21.27;;;7.10;;
32705;SDS011;19094;50.972;3.538;2023-08-21T05:11:47;18.13;;;5.57;;
32705;SDS011;19094;50.972;3.538;2023-08-21T05:14:13;13.32;;;5.70;;
32705;SDS011;19094;50.972;3.538;2023-08-21T05:16:39;16.83;;;6.32;;
32705;SDS011;19094;50.972;3.538;2023-08-21T05:19:04;18.48;;;6.72;;
32705;SDS011;19094;50.972;3.538;2023-08-21T05:21:30;21.33;;;5.95;;
32705;SDS011;19094;50.972;3.538;2023-08-21T05:23:56;20.67;;;6.05;;
32705;SDS011;19094;50.972;3.538;2023-08-21T05:26:21;20.30;;;6.78;;
32705;SDS011;19094;50.972;3.538;2023-08-21T05:28:47;14.80;;;6.22;;
32705;SDS011;19094;50.972;3.538;2023-08-21T05:31:12;24.70;;;7.20;;
32705;SDS011;19094;50.972;3.538;2023-08-21T05:33:38;16.42;;;5.43;;
32705;SDS011;19094;50.972;3.538;2023-08-21T05:36:04;9.88;;;4.43;;
32705;SDS011;19094;50.972;3.538;2023-08-21T05:38:30;16.35;;;6.20;;
32705;SDS011;19094;50.972;3.538;2023-08-21T05:40:56;20.20;;;6.68;;
32705;SDS011;19094;50.972;3.538;2023-08-21T05:43:23;17.45;;;5.93;;
32705;SDS011;19094;50.972;3.538;2023-08-21T05:45:49;18.38;;;6.68;;
32705;SDS011;19094;50.972;3.538;2023-08-21T05:48:15;18.83;;;6.47;;
32705;SDS011;19094;50.972;3.538;2023-08-21T05:50:42;18.30;;;6.35;;
32705;SDS011;19094;50.972;3.538;2023-08-21T05:53:08;18.17;;;6.75;;
32705;SDS011;19094;50.972;3.538;2023-08-21T05:55:35;25.45;;;7.15;;
32705;SDS011;19094;50.972;3.538;2023-08-21T05:58:02;18.60;;;7.35;;
32705;SDS011;19094;50.972;3.538;2023-08-21T06:00:28;25.58;;;7.82;;
32705;SDS011;19094;50.972;3.538;2023-08-21T06:02:54;18.83;;;6.97;;
32705;SDS011;19094;50.972;3.538;2023-08-21T06:05:20;31.58;;;8.68;;
32705;SDS011;19094;50.972;3.538;2023-08-21T06:07:45;19.63;;;7.55;;
32705;SDS011;19094;50.972;3.538;2023-08-21T06:10:11;16.40;;;7.32;;
32705;SDS011;19094;50.972;3.538;2023-08-21T06:12:38;26.10;;;8.77;;
32705;SDS011;19094;50.972;3.538;2023-08-21T06:15:07;36.10;;;9.95;;
32705;SDS011;19094;50.972;3.538;2023-08-21T06:17:37;36.55;;;10.73;;
32705;SDS011;19094;50.972;3.538;2023-08-21T06:20:03;40.20;;;11.20;;
32705;SDS011;19094;50.972;3.538;2023-08-21T06:22:36;38.27;;;11.93;;
32705;SDS011;19094;50.972;3.538;2023-08-21T06:25:02;63.25;;;14.10;;
32705;SDS011;19094;50.972;3.538;2023-08-21T06:27:28;45.50;;;12.18;;
32705;SDS011;19094;50.972;3.538;2023-08-21T06:29:53;51.47;;;14.30;;
32705;SDS011;19094;50.972;3.538;2023-08-21T06:32:19;45.60;;;13.05;;
32705;SDS011;19094;50.972;3.538;2023-08-21T06:34:45;54.58;;;14.13;;
32705;SDS011;19094;50.972;3.538;2023-08-21T06:37:10;54.45;;;14.40;;
32705;SDS011;19094;50.972;3.538;2023-08-21T06:39:37;59.35;;;14.27;;
32705;SDS011;19094;50.972;3.538;2023-08-21T06:42:04;41.80;;;12.73;;
32705;SDS011;19094;50.972;3.538;2023-08-21T06:44:29;51.28;;;14.60;;
32705;SDS011;19094;50.972;3.538;2023-08-21T06:46:55;40.40;;;12.52;;
32705;SDS011;19094;50.972;3.538;2023-08-21T06:49:21;42.65;;;12.50;;
32705;SDS011;19094;50.972;3.538;2023-08-21T06:51:47;45.25;;;13.60;;
32705;SDS011;19094;50.972;3.538;2023-08-21T06:54:12;42.83;;;12.55;;
32705;SDS011;19094;50.972;3.538;2023-08-21T06:56:38;46.38;;;14.27;;
32705;SDS011;19094;50.972;3.538;2023-08-21T06:59:04;47.40;;;13.68;;
32705;SDS011;19094;50.972;3.538;2023-08-21T07:01:29;42.22;;;12.38;;
32705;SDS011;19094;50.972;3.538;2023-08-21T07:03:55;46.28;;;14.77;;
32705;SDS011;19094;50.972;3.538;2023-08-21T07:06:21;47.90;;;14.25;;
32705;SDS011;19094;50.972;3.538;2023-08-21T07:08:46;45.67;;;12.88;;
32705;SDS011;19094;50.972;3.538;2023-08-21T07:11:12;47.33;;;14.02;;
32705;SDS011;19094;50.972;3.538;2023-08-21T07:13:38;42.75;;;13.40;;
32705;SDS011;19094;50.972;3.538;2023-08-21T07:16:04;42.17;;;14.00;;
32705;SDS011;19094;50.972;3.538;2023-08-21T07:18:31;45.78;;;13.85;;
32705;SDS011;19094;50.972;3.538;2023-08-21T07:20:58;42.03;;;13.52;;
32705;SDS011;19094;50.972;3.538;2023-08-21T07:23:24;43.00;;;14.68;;
32705;SDS011;19094;50.972;3.538;2023-08-21T07:25:50;29.48;;;12.70;;
32705;SDS011;19094;50.972;3.538;2023-08-21T07:28:16;38.05;;;12.32;;
32705;SDS011;19094;50.972;3.538;2023-08-21T07:30:42;31.80;;;12.57;;
32705;SDS011;19094;50.972;3.538;2023-08-21T07:33:08;30.60;;;12.30;;
32705;SDS011;19094;50.972;3.538;2023-08-21T07:35:34;26.23;;;11.40;;
32705;SDS011;19094;50.972;3.538;2023-08-21T07:38:00;26.75;;;12.02;;
32705;SDS011;19094;50.972;3.538;2023-08-21T07:40:26;30.70;;;11.57;;
32705;SDS011;19094;50.972;3.538;2023-08-21T07:42:52;25.95;;;12.20;;
32705;SDS011;19094;50.972;3.538;2023-08-21T07:45:18;26.17;;;12.43;;
32705;SDS011;19094;50.972;3.538;2023-08-21T07:47:43;27.58;;;12.35;;
32705;SDS011;19094;50.972;3.538;2023-08-21T07:50:09;29.85;;;12.85;;
32705;SDS011;19094;50.972;3.538;2023-08-21T07:52:36;25.73;;;13.15;;
32705;SDS011;19094;50.972;3.538;2023-08-21T07:55:02;24.48;;;10.80;;
32705;SDS011;19094;50.972;3.538;2023-08-21T07:57:28;28.63;;;11.80;;
32705;SDS011;19094;50.972;3.538;2023-08-21T07:59:54;23.75;;;10.85;;
32705;SDS011;19094;50.972;3.538;2023-08-21T08:02:20;25.73;;;11.50;;
32705;SDS011;19094;50.972;3.538;2023-08-21T08:04:46;27.13;;;11.48;;
32705;SDS011;19094;50.972;3.538;2023-08-21T08:07:12;29.70;;;11.75;;
32705;SDS011;19094;50.972;3.538;2023-08-21T08:09:38;26.40;;;11.02;;
32705;SDS011;19094;50.972;3.538;2023-08-21T08:12:04;25.63;;;11.60;;
32705;SDS011;19094;50.972;3.538;2023-08-21T08:14:30;28.40;;;11.10;;
32705;SDS011;19094;50.972;3.538;2023-08-21T08:16:56;23.67;;;11.48;;
32705;SDS011;19094;50.972;3.538;2023-08-21T08:19:22;26.63;;;12.23;;
32705;SDS011;19094;50.972;3.538;2023-08-21T08:21:47;27.15;;;11.95;;
32705;SDS011;19094;50.972;3.538;2023-08-21T08:24:13;31.42;;;14.07;;
32705;SDS011;19094;50.972;3.538;2023-08-21T08:26:39;30.70;;;13.35;;
32705;SDS011;19094;50.972;3.538;2023-08-21T08:29:06;25.98;;;12.90;;
32705;SDS011;19094;50.972;3.538;2023-08-21T08:31:32;26.02;;;13.55;;
32705;SDS011;19094;50.972;3.538;2023-08-21T08:33:58;27.48;;;14.05;;
32705;SDS011;19094;50.972;3.538;2023-08-21T08:36:23;31.55;;;14.88;;
32705;SDS011;19094;50.972;3.538;2023-08-21T08:38:49;33.78;;;14.52;;
32705;SDS011;19094;50.972;3.538;2023-08-21T08:41:32;30.38;;;14.00;;
32705;SDS011;19094;50.972;3.538;2023-08-21T08:44:03;28.35;;;13.48;;
32705;SDS011;19094;50.972;3.538;2023-08-21T08:46:30;29.17;;;13.98;;
32705;SDS011;19094;50.972;3.538;2023-08-21T08:48:56;32.15;;;13.85;;
32705;SDS011;19094;50.972;3.538;2023-08-21T08:51:25;28.75;;;13.35;;
32705;SDS011;19094;50.972;3.538;2023-08-21T08:53:55;29.90;;;12.52;;
32705;SDS011;19094;50.972;3.538;2023-08-21T08:56:23;30.17;;;13.57;;
32705;SDS011;19094;50.972;3.538;2023-08-21T08:58:49;27.23;;;12.98;;
32705;SDS011;19094;50.972;3.538;2023-08-21T09:01:14;33.60;;;13.75;;
32705;SDS011;19094;50.972;3.538;2023-08-21T09:03:40;28.92;;;13.32;;
32705;SDS011;19094;50.972;3.538;2023-08-21T09:06:06;28.85;;;13.30;;
32705;SDS011;19094;50.972;3.538;2023-08-21T09:08:31;29.88;;;13.88;;
32705;SDS011;19094;50.972;3.538;2023-08-21T09:11:00;32.08;;;13.80;;
32705;SDS011;19094;50.972;3.538;2023-08-21T09:13:28;33.97;;;15.25;;
32705;SDS011;19094;50.972;3.538;2023-08-21T09:15:55;28.90;;;13.43;;
32705;SDS011;19094;50.972;3.538;2023-08-21T09:18:21;27.45;;;13.30;;
32705;SDS011;19094;50.972;3.538;2023-08-21T09:20:47;32.20;;;13.77;;
32705;SDS011;19094;50.972;3.538;2023-08-21T09:23:14;32.35;;;13.68;;
32705;SDS011;19094;50.972;3.538;2023-08-21T09:25:41;36.97;;;15.10;;
32705;SDS011;19094;50.972;3.538;2023-08-21T09:28:12;33.70;;;14.70;;
32705;SDS011;19094;50.972;3.538;2023-08-21T09:30:48;36.20;;;14.90;;
32705;SDS011;19094;50.972;3.538;2023-08-21T09:33:16;35.58;;;15.63;;
32705;SDS011;19094;50.972;3.538;2023-08-21T09:35:43;37.38;;;15.23;;
32705;SDS011;19094;50.972;3.538;2023-08-21T09:38:09;37.72;;;16.30;;
32705;SDS011;19094;50.972;3.538;2023-08-21T09:40:38;31.90;;;13.68;;
32705;SDS011;19094;50.972;3.538;2023-08-21T09:43:06;33.67;;;14.02;;
32705;SDS011;19094;50.972;3.538;2023-08-21T09:45:34;28.98;;;12.68;;
32705;SDS011;19094;50.972;3.538;2023-08-21T09:48:00;32.33;;;14.48;;
32705;SDS011;19094;50.972;3.538;2023-08-21T09:50:29;31.15;;;14.40;;
32705;SDS011;19094;50.972;3.538;2023-08-21T09:52:55;33.00;;;13.77;;
32705;SDS011;19094;50.972;3.538;2023-08-21T09:55:22;34.95;;;15.15;;
32705;SDS011;19094;50.972;3.538;2023-08-21T09:57:51;27.20;;;11.80;;
32705;SDS011;19094;50.972;3.538;2023-08-21T10:00:24;40.22;;;14.27;;
32705;SDS011;19094;50.972;3.538;2023-08-21T10:02:59;28.08;;;12.70;;
32705;SDS011;19094;50.972;3.538;2023-08-21T10:05:27;33.10;;;11.73;;
32705;SDS011;19094;50.972;3.538;2023-08-21T10:07:53;41.80;;;14.60;;
32705;SDS011;19094;50.972;3.538;2023-08-21T10:10:21;32.30;;;12.93;;
32705;SDS011;19094;50.972;3.538;2023-08-21T10:12:50;34.33;;;12.15;;
32705;SDS011;19094;50.972;3.538;2023-08-21T10:15:16;33.30;;;13.38;;
32705;SDS011;19094;50.972;3.538;2023-08-21T10:17:42;31.10;;;12.30;;
32705;SDS011;19094;50.972;3.538;2023-08-21T10:20:08;22.77;;;10.70;;
32705;SDS011;19094;50.972;3.538;2023-08-21T10:22:54;32.25;;;12.07;;
32705;SDS011;19094;50.972;3.538;2023-08-21T10:25:25;36.20;;;12.82;;
32705;SDS011;19094;50.972;3.538;2023-08-21T10:27:52;24.73;;;11.77;;
32705;SDS011;19094;50.972;3.538;2023-08-21T10:30:23;23.30;;;9.27;;
32705;SDS011;19094;50.972;3.538;2023-08-21T10:32:51;27.52;;;10.60;;
32705;SDS011;19094;50.972;3.538;2023-08-21T10:35:18;22.30;;;9.40;;
32705;SDS011;19094;50.972;3.538;2023-08-21T10:40:34;19.38;;;8.35;;
32705;SDS011;19094;50.972;3.538;2023-08-21T10:43:00;13.98;;;7.20;;
32705;SDS011;19094;50.972;3.538;2023-08-21T10:45:27;14.82;;;6.50;;
32705;SDS011;19094;50.972;3.538;2023-08-21T10:47:56;19.75;;;7.57;;
32705;SDS011;19094;50.972;3.538;2023-08-21T10:50:23;21.52;;;9.10;;
32705;SDS011;19094;50.972;3.538;2023-08-21T10:52:49;15.68;;;8.80;;
32705;SDS011;19094;50.972;3.538;2023-08-21T10:55:16;19.25;;;8.05;;
32705;SDS011;19094;50.972;3.538;2023-08-21T10:57:48;21.88;;;8.15;;
32705;SDS011;19094;50.972;3.538;2023-08-21T11:00:18;18.75;;;6.15;;
32705;SDS011;19094;50.972;3.538;2023-08-21T11:02:45;12.75;;;5.00;;
32705;SDS011;19094;50.972;3.538;2023-08-21T11:05:13;16.90;;;6.28;;
32705;SDS011;19094;50.972;3.538;2023-08-21T11:07:43;14.77;;;7.05;;
32705;SDS011;19094;50.972;3.538;2023-08-21T11:10:11;18.00;;;6.82;;
32705;SDS011;19094;50.972;3.538;2023-08-21T11:12:40;23.80;;;7.75;;
32705;SDS011;19094;50.972;3.538;2023-08-21T11:15:14;17.38;;;8.07;;
32705;SDS011;19094;50.972;3.538;2023-08-21T11:17:41;15.27;;;6.05;;
32705;SDS011;19094;50.972;3.538;2023-08-21T11:20:07;14.63;;;5.40;;
32705;SDS011;19094;50.972;3.538;2023-08-21T11:22:33;11.73;;;5.30;;
32705;SDS011;19094;50.972;3.538;2023-08-21T11:24:59;10.13;;;4.40;;
32705;SDS011;19094;50.972;3.538;2023-08-21T11:27:25;8.48;;;4.05;;
32705;SDS011;19094;50.972;3.538;2023-08-21T11:29:51;8.63;;;3.78;;
32705;SDS011;19094;50.972;3.538;2023-08-21T11:32:21;14.65;;;4.47;;
32705;SDS011;19094;50.972;3.538;2023-08-21T11:34:51;9.98;;;4.55;;
32705;SDS011;19094;50.972;3.538;2023-08-21T11:37:25;10.95;;;3.83;;
32705;SDS011;19094;50.972;3.538;2023-08-21T11:39:55;13.52;;;5.97;;
32705;SDS011;19094;50.972;3.538;2023-08-21T11:42:29;25.30;;;6.88;;
32705;SDS011;19094;50.972;3.538;2023-08-21T11:44:57;13.15;;;5.38;;
32705;SDS011;19094;50.972;3.538;2023-08-21T11:47:29;11.10;;;4.43;;
32705;SDS011;19094;50.972;3.538;2023-08-21T11:49:56;7.22;;;3.75;;
32705;SDS011;19094;50.972;3.538;2023-08-21T11:52:23;8.95;;;4.40;;
32705;SDS011;19094;50.972;3.538;2023-08-21T11:54:53;12.85;;;4.97;;
32705;SDS011;19094;50.972;3.538;2023-08-21T11:57:19;10.85;;;5.32;;
32705;SDS011;19094;50.972;3.538;2023-08-21T11:59:52;10.60;;;4.00;;
32705;SDS011;19094;50.972;3.538;2023-08-21T12:02:21;14.13;;;4.10;;
32705;SDS011;19094;50.972;3.538;2023-08-21T12:04:54;13.15;;;4.78;;
32705;SDS011;19094;50.972;3.538;2023-08-21T12:07:27;10.02;;;4.60;;
32705;SDS011;19094;50.972;3.538;2023-08-21T12:09:52;12.27;;;4.55;;
32705;SDS011;19094;50.972;3.538;2023-08-21T12:12:18;13.05;;;4.88;;
32705;SDS011;19094;50.972;3.538;2023-08-21T12:14:44;13.65;;;5.15;;
32705;SDS011;19094;50.972;3.538;2023-08-21T12:17:11;12.52;;;4.90;;
32705;SDS011;19094;50.972;3.538;2023-08-21T12:19:37;10.25;;;5.75;;
32705;SDS011;19094;50.972;3.538;2023-08-21T12:22:03;10.77;;;4.93;;
32705;SDS011;19094;50.972;3.538;2023-08-21T12:24:29;10.10;;;5.40;;
32705;SDS011;19094;50.972;3.538;2023-08-21T12:26:55;12.02;;;5.60;;
32705;SDS011;19094;50.972;3.538;2023-08-21T12:29:20;7.72;;;4.63;;
32705;SDS011;19094;50.972;3.538;2023-08-21T12:31:46;10.70;;;4.95;;
32705;SDS011;19094;50.972;3.538;2023-08-21T12:34:12;16.73;;;5.15;;
32705;SDS011;19094;50.972;3.538;2023-08-21T12:36:38;12.57;;;4.40;;
32705;SDS011;19094;50.972;3.538;2023-08-21T12:39:04;12.70;;;4.72;;
32705;SDS011;19094;50.972;3.538;2023-08-21T12:41:31;9.75;;;4.78;;
32705;SDS011;19094;50.972;3.538;2023-08-21T12:44:01;13.60;;;5.55;;
32705;SDS011;19094;50.972;3.538;2023-08-21T12:46:33;12.65;;;6.18;;
32705;SDS011;19094;50.972;3.538;2023-08-21T12:49:00;12.25;;;5.65;;
32705;SDS011;19094;50.972;3.538;2023-08-21T12:51:27;8.02;;;5.38;;
32705;SDS011;19094;50.972;3.538;2023-08-21T12:53:53;6.78;;;4.15;;
32705;SDS011;19094;50.972;3.538;2023-08-21T12:56:20;11.85;;;5.90;;
32705;SDS011;19094;50.972;3.538;2023-08-21T12:58:46;8.40;;;5.88;;
32705;SDS011;19094;50.972;3.538;2023-08-21T13:01:12;7.88;;;5.20;;
32705;SDS011;19094;50.972;3.538;2023-08-21T13:03:43;17.48;;;5.25;;
32705;SDS011;19094;50.972;3.538;2023-08-21T13:06:12;10.30;;;4.50;;
32705;SDS011;19094;50.972;3.538;2023-08-21T13:08:40;6.45;;;3.22;;
32705;SDS011;19094;50.972;3.538;2023-08-21T13:11:06;6.72;;;3.50;;
32705;SDS011;19094;50.972;3.538;2023-08-21T13:13:32;7.75;;;3.75;;
32705;SDS011;19094;50.972;3.538;2023-08-21T13:15:58;7.30;;;3.42;;
32705;SDS011;19094;50.972;3.538;2023-08-21T13:18:25;9.32;;;3.60;;
32705;SDS011;19094;50.972;3.538;2023-08-21T13:20:51;10.32;;;4.03;;
32705;SDS011;19094;50.972;3.538;2023-08-21T13:23:17;10.20;;;3.67;;
32705;SDS011;19094;50.972;3.538;2023-08-21T13:25:42;5.72;;;2.75;;
32705;SDS011;19094;50.972;3.538;2023-08-21T13:28:08;3.97;;;2.80;;
32705;SDS011;19094;50.972;3.538;2023-08-21T13:30:34;8.70;;;4.43;;
32705;SDS011;19094;50.972;3.538;2023-08-21T13:32:59;9.70;;;4.95;;
32705;SDS011;19094;50.972;3.538;2023-08-21T13:35:25;12.52;;;3.22;;
32705;SDS011;19094;50.972;3.538;2023-08-21T13:37:51;6.95;;;3.30;;
32705;SDS011;19094;50.972;3.538;2023-08-21T13:40:17;8.15;;;2.97;;
32705;SDS011;19094;50.972;3.538;2023-08-21T13:42:43;6.47;;;3.88;;
32705;SDS011;19094;50.972;3.538;2023-08-21T13:45:10;7.80;;;3.58;;
32705;SDS011;19094;50.972;3.538;2023-08-21T13:47:45;5.70;;;3.72;;
32705;SDS011;19094;50.972;3.538;2023-08-21T13:50:15;7.35;;;3.83;;
32705;SDS011;19094;50.972;3.538;2023-08-21T13:52:42;6.57;;;4.00;;
32705;SDS011;19094;50.972;3.538;2023-08-21T13:55:12;7.13;;;3.90;;
32705;SDS011;19094;50.972;3.538;2023-08-21T13:57:38;6.97;;;3.97;;
32705;SDS011;19094;50.972;3.538;2023-08-21T14:00:04;6.43;;;4.47;;
32705;SDS011;19094;50.972;3.538;2023-08-21T14:02:33;6.85;;;4.28;;
32705;SDS011;19094;50.972;3.538;2023-08-21T14:05:00;9.95;;;4.80;;
32705;SDS011;19094;50.972;3.538;2023-08-21T14:07:26;8.38;;;4.80;;
32705;SDS011;19094;50.972;3.538;2023-08-21T14:09:52;10.80;;;4.53;;
32705;SDS011;19094;50.972;3.538;2023-08-21T14:12:18;12.30;;;4.50;;
32705;SDS011;19094;50.972;3.538;2023-08-21T14:14:44;7.53;;;4.20;;
32705;SDS011;19094;50.972;3.538;2023-08-21T14:17:09;14.63;;;4.53;;
32705;SDS011;19094;50.972;3.538;2023-08-21T14:19:35;9.77;;;4.18;;
32705;SDS011;19094;50.972;3.538;2023-08-21T14:22:01;12.43;;;4.70;;
32705;SDS011;19094;50.972;3.538;2023-08-21T14:24:28;7.78;;;5.05;;
32705;SDS011;19094;50.972;3.538;2023-08-21T14:26:53;6.68;;;4.60;;
32705;SDS011;19094;50.972;3.538;2023-08-21T14:29:19;8.32;;;4.40;;
32705;SDS011;19094;50.972;3.538;2023-08-21T14:31:45;10.38;;;4.03;;
32705;SDS011;19094;50.972;3.538;2023-08-21T14:34:12;4.43;;;3.10;;
32705;SDS011;19094;50.972;3.538;2023-08-21T14:36:38;8.90;;;4.07;;
32705;SDS011;19094;50.972;3.538;2023-08-21T14:39:04;9.02;;;4.28;;